sensor_id;sensor_type;location;lat;lon;timestamp;temperature;humidity
47226;DHT22;32965;64.142;-21.912;2022-08-01T00:00:49;11.00;95.10
47226;DHT22;32965;64.142;-21.912;2022-08-01T00:03:23;11.00;95.50
47226;DHT22;32965;64.142;-21.912;2022-08-01T00:05:51;11.00;95.30
47226;DHT22;32965;64.142;-21.912;2022-08-01T00:08:19;10.90;95.30
47226;DHT22;32965;64.142;-21.912;2022-08-01T00:20:49;10.90;95.90
47226;DHT22;32965;64.142;-21.912;2022-08-01T00:23:19;10.90;95.80
47226;DHT22;32965;64.142;-21.912;2022-08-01T00:26:27;11.00;96.10
47226;DHT22;32965;64.142;-21.912;2022-08-01T00:28:59;10.90;96.00
47226;DHT22;32965;64.142;-21.912;2022-08-01T00:31:26;10.90;95.90
47226;DHT22;32965;64.142;-21.912;2022-08-01T00:33:59;10.90;95.90
47226;DHT22;32965;64.142;-21.912;2022-08-01T00:36:52;11.00;96.20
47226;DHT22;32965;64.142;-21.912;2022-08-01T00:44:15;11.20;96.10
47226;DHT22;32965;64.142;-21.912;2022-08-01T00:46:41;11.20;96.40
47226;DHT22;32965;64.142;-21.912;2022-08-01T00:49:14;11.20;96.50
47226;DHT22;32965;64.142;-21.912;2022-08-01T00:51:43;11.20;95.90
47226;DHT22;32965;64.142;-21.912;2022-08-01T00:54:37;11.30;95.60
47226;DHT22;32965;64.142;-21.912;2022-08-01T00:57:13;11.30;95.00
47226;DHT22;32965;64.142;-21.912;2022-08-01T01:00:12;11.30;95.00
47226;DHT22;32965;64.142;-21.912;2022-08-01T01:02:47;11.40;94.90
47226;DHT22;32965;64.142;-21.912;2022-08-01T01:05:21;11.40;94.40
47226;DHT22;32965;64.142;-21.912;2022-08-01T01:07:56;11.40;94.40
47226;DHT22;32965;64.142;-21.912;2022-08-01T01:10:48;11.40;95.00
47226;DHT22;32965;64.142;-21.912;2022-08-01T01:13:37;11.40;95.50
47226;DHT22;32965;64.142;-21.912;2022-08-01T01:16:12;11.40;95.60
47226;DHT22;32965;64.142;-21.912;2022-08-01T01:18:46;11.30;96.10
47226;DHT22;32965;64.142;-21.912;2022-08-01T01:21:33;11.00;96.60
47226;DHT22;32965;64.142;-21.912;2022-08-01T01:24:38;11.10;97.00
47226;DHT22;32965;64.142;-21.912;2022-08-01T01:27:28;10.90;97.30
47226;DHT22;32965;64.142;-21.912;2022-08-01T01:29:59;10.80;97.70
47226;DHT22;32965;64.142;-21.912;2022-08-01T01:32:54;10.50;97.80
47226;DHT22;32965;64.142;-21.912;2022-08-01T01:35:32;10.30;98.00
47226;DHT22;32965;64.142;-21.912;2022-08-01T01:38:09;10.10;98.40
47226;DHT22;32965;64.142;-21.912;2022-08-01T01:40:37;10.00;98.60
47226;DHT22;32965;64.142;-21.912;2022-08-01T01:43:06;10.00;98.80
47226;DHT22;32965;64.142;-21.912;2022-08-01T01:45:36;10.00;99.00
47226;DHT22;32965;64.142;-21.912;2022-08-01T01:48:21;9.90;98.90
47226;DHT22;32965;64.142;-21.912;2022-08-01T01:50:52;10.00;98.80
47226;DHT22;32965;64.142;-21.912;2022-08-01T01:53:21;10.00;99.30
47226;DHT22;32965;64.142;-21.912;2022-08-01T01:55:52;10.10;99.50
47226;DHT22;32965;64.142;-21.912;2022-08-01T01:58:24;10.20;99.20
47226;DHT22;32965;64.142;-21.912;2022-08-01T02:00:58;10.20;99.30
47226;DHT22;32965;64.142;-21.912;2022-08-01T02:03:26;10.30;99.00
47226;DHT22;32965;64.142;-21.912;2022-08-01T02:05:53;10.30;98.90
47226;DHT22;32965;64.142;-21.912;2022-08-01T02:08:23;10.40;98.80
47226;DHT22;32965;64.142;-21.912;2022-08-01T02:10:51;10.40;99.10
47226;DHT22;32965;64.142;-21.912;2022-08-01T02:14:01;10.40;99.20
47226;DHT22;32965;64.142;-21.912;2022-08-01T02:16:33;10.40;99.30
47226;DHT22;32965;64.142;-21.912;2022-08-01T02:19:00;10.40;99.40
47226;DHT22;32965;64.142;-21.912;2022-08-01T02:21:57;10.40;99.40
47226;DHT22;32965;64.142;-21.912;2022-08-01T02:24:49;10.40;98.90
47226;DHT22;32965;64.142;-21.912;2022-08-01T02:27:21;10.30;97.80
47226;DHT22;32965;64.142;-21.912;2022-08-01T02:30:05;10.30;97.80
47226;DHT22;32965;64.142;-21.912;2022-08-01T02:32:58;10.40;97.70
47226;DHT22;32965;64.142;-21.912;2022-08-01T02:38:40;10.20;96.60
47226;DHT22;32965;64.142;-21.912;2022-08-01T02:41:22;10.20;96.60
47226;DHT22;32965;64.142;-21.912;2022-08-01T02:43:53;10.20;96.70
47226;DHT22;32965;64.142;-21.912;2022-08-01T02:46:43;10.10;96.20
47226;DHT22;32965;64.142;-21.912;2022-08-01T02:49:23;10.10;96.10
47226;DHT22;32965;64.142;-21.912;2022-08-01T02:51:58;10.10;96.10
47226;DHT22;32965;64.142;-21.912;2022-08-01T02:54:27;10.00;95.30
47226;DHT22;32965;64.142;-21.912;2022-08-01T02:57:09;9.90;95.40
47226;DHT22;32965;64.142;-21.912;2022-08-01T03:00:05;10.00;94.80
47226;DHT22;32965;64.142;-21.912;2022-08-01T03:02:36;9.90;94.80
47226;DHT22;32965;64.142;-21.912;2022-08-01T03:05:13;9.90;95.40
47226;DHT22;32965;64.142;-21.912;2022-08-01T03:07:42;9.90;95.20
47226;DHT22;32965;64.142;-21.912;2022-08-01T03:10:23;9.80;95.50
47226;DHT22;32965;64.142;-21.912;2022-08-01T03:12:57;9.90;95.30
47226;DHT22;32965;64.142;-21.912;2022-08-01T03:15:28;9.80;94.60
47226;DHT22;32965;64.142;-21.912;2022-08-01T03:17:56;9.80;94.80
47226;DHT22;32965;64.142;-21.912;2022-08-01T03:20:25;9.80;94.50
47226;DHT22;32965;64.142;-21.912;2022-08-01T03:23:12;9.80;94.40
47226;DHT22;32965;64.142;-21.912;2022-08-01T03:25:43;9.80;94.50
47226;DHT22;32965;64.142;-21.912;2022-08-01T03:28:13;9.80;95.10
47226;DHT22;32965;64.142;-21.912;2022-08-01T03:30:43;9.80;94.10
47226;DHT22;32965;64.142;-21.912;2022-08-01T03:33:10;9.80;93.90
47226;DHT22;32965;64.142;-21.912;2022-08-01T03:35:53;9.80;94.00
47226;DHT22;32965;64.142;-21.912;2022-08-01T03:38:33;9.80;93.80
47226;DHT22;32965;64.142;-21.912;2022-08-01T03:41:29;9.80;93.50
47226;DHT22;32965;64.142;-21.912;2022-08-01T03:44:05;9.80;92.40
47226;DHT22;32965;64.142;-21.912;2022-08-01T03:46:45;9.90;92.10
47226;DHT22;32965;64.142;-21.912;2022-08-01T03:49:17;9.90;92.30
47226;DHT22;32965;64.142;-21.912;2022-08-01T03:51:50;9.90;92.60
47226;DHT22;32965;64.142;-21.912;2022-08-01T03:54:21;10.00;92.00
47226;DHT22;32965;64.142;-21.912;2022-08-01T03:56:49;9.90;91.90
47226;DHT22;32965;64.142;-21.912;2022-08-01T03:59:18;9.90;91.90
47226;DHT22;32965;64.142;-21.912;2022-08-01T04:01:46;9.90;92.20
47226;DHT22;32965;64.142;-21.912;2022-08-01T04:04:15;9.90;92.30
47226;DHT22;32965;64.142;-21.912;2022-08-01T04:14:32;9.90;92.20
47226;DHT22;32965;64.142;-21.912;2022-08-01T04:17:09;9.90;92.10
47226;DHT22;32965;64.142;-21.912;2022-08-01T04:19:36;9.90;92.30
47226;DHT22;32965;64.142;-21.912;2022-08-01T04:22:13;10.00;91.90
47226;DHT22;32965;64.142;-21.912;2022-08-01T04:25:06;9.90;91.40
47226;DHT22;32965;64.142;-21.912;2022-08-01T04:27:37;9.80;92.00
47226;DHT22;32965;64.142;-21.912;2022-08-01T04:30:12;9.80;92.40
47226;DHT22;32965;64.142;-21.912;2022-08-01T04:32:52;9.80;92.10
47226;DHT22;32965;64.142;-21.912;2022-08-01T04:35:33;9.80;92.40
47226;DHT22;32965;64.142;-21.912;2022-08-01T04:38:01;9.70;92.50
47226;DHT22;32965;64.142;-21.912;2022-08-01T04:43:11;9.70;92.40
47226;DHT22;32965;64.142;-21.912;2022-08-01T04:45:39;9.80;92.40
47226;DHT22;32965;64.142;-21.912;2022-08-01T04:48:06;9.70;92.50
47226;DHT22;32965;64.142;-21.912;2022-08-01T04:50:36;9.70;92.70
47226;DHT22;32965;64.142;-21.912;2022-08-01T04:53:16;9.70;93.00
47226;DHT22;32965;64.142;-21.912;2022-08-01T04:55:43;9.70;93.20
47226;DHT22;32965;64.142;-21.912;2022-08-01T04:58:10;9.70;93.30
47226;DHT22;32965;64.142;-21.912;2022-08-01T05:00:36;9.70;93.20
47226;DHT22;32965;64.142;-21.912;2022-08-01T05:03:02;9.70;93.20
47226;DHT22;32965;64.142;-21.912;2022-08-01T05:05:35;9.80;92.60
47226;DHT22;32965;64.142;-21.912;2022-08-01T05:08:01;9.80;93.00
47226;DHT22;32965;64.142;-21.912;2022-08-01T05:10:28;9.90;92.90
47226;DHT22;32965;64.142;-21.912;2022-08-01T05:12:55;9.80;92.70
47226;DHT22;32965;64.142;-21.912;2022-08-01T05:15:21;9.90;92.60
47226;DHT22;32965;64.142;-21.912;2022-08-01T05:17:47;9.90;92.80
47226;DHT22;32965;64.142;-21.912;2022-08-01T05:20:13;9.80;92.90
47226;DHT22;32965;64.142;-21.912;2022-08-01T05:22:41;9.90;93.20
47226;DHT22;32965;64.142;-21.912;2022-08-01T05:25:08;9.90;93.20
47226;DHT22;32965;64.142;-21.912;2022-08-01T05:27:37;9.90;93.40
47226;DHT22;32965;64.142;-21.912;2022-08-01T05:30:13;9.80;94.10
47226;DHT22;32965;64.142;-21.912;2022-08-01T05:35:06;9.90;94.70
47226;DHT22;32965;64.142;-21.912;2022-08-01T05:37:32;9.80;94.70
47226;DHT22;32965;64.142;-21.912;2022-08-01T05:39:58;9.80;95.30
47226;DHT22;32965;64.142;-21.912;2022-08-01T05:42:25;9.90;95.50
47226;DHT22;32965;64.142;-21.912;2022-08-01T05:44:51;9.80;95.50
47226;DHT22;32965;64.142;-21.912;2022-08-01T05:47:18;9.80;95.70
47226;DHT22;32965;64.142;-21.912;2022-08-01T05:49:45;9.80;95.90
47226;DHT22;32965;64.142;-21.912;2022-08-01T05:52:11;9.80;96.40
47226;DHT22;32965;64.142;-21.912;2022-08-01T05:54:57;9.80;96.70
47226;DHT22;32965;64.142;-21.912;2022-08-01T05:57:26;9.80;96.80
47226;DHT22;32965;64.142;-21.912;2022-08-01T06:00:13;9.80;97.10
47226;DHT22;32965;64.142;-21.912;2022-08-01T06:02:48;9.80;97.20
47226;DHT22;32965;64.142;-21.912;2022-08-01T06:05:22;9.80;97.30
47226;DHT22;32965;64.142;-21.912;2022-08-01T06:07:48;9.80;97.40
47226;DHT22;32965;64.142;-21.912;2022-08-01T06:10:14;9.80;97.70
47226;DHT22;32965;64.142;-21.912;2022-08-01T06:15:07;9.80;97.50
47226;DHT22;32965;64.142;-21.912;2022-08-01T06:17:36;9.80;97.80
47226;DHT22;32965;64.142;-21.912;2022-08-01T06:20:06;9.80;97.60
47226;DHT22;32965;64.142;-21.912;2022-08-01T06:22:33;9.80;96.90
47226;DHT22;32965;64.142;-21.912;2022-08-01T06:25:02;9.80;96.20
47226;DHT22;32965;64.142;-21.912;2022-08-01T06:27:28;9.80;96.30
47226;DHT22;32965;64.142;-21.912;2022-08-01T06:32:23;9.90;95.60
47226;DHT22;32965;64.142;-21.912;2022-08-01T06:34:49;9.90;95.10
47226;DHT22;32965;64.142;-21.912;2022-08-01T06:37:15;9.90;95.70
47226;DHT22;32965;64.142;-21.912;2022-08-01T06:39:42;10.00;95.90
47226;DHT22;32965;64.142;-21.912;2022-08-01T06:42:11;10.00;95.00
47226;DHT22;32965;64.142;-21.912;2022-08-01T06:44:37;10.00;95.10
47226;DHT22;32965;64.142;-21.912;2022-08-01T06:47:05;10.00;94.70
47226;DHT22;32965;64.142;-21.912;2022-08-01T06:51:58;10.10;94.20
47226;DHT22;32965;64.142;-21.912;2022-08-01T06:54:25;10.10;93.30
47226;DHT22;32965;64.142;-21.912;2022-08-01T06:57:05;10.10;93.30
47226;DHT22;32965;64.142;-21.912;2022-08-01T06:59:33;10.10;92.30
47226;DHT22;32965;64.142;-21.912;2022-08-01T07:02:03;10.10;92.70
47226;DHT22;32965;64.142;-21.912;2022-08-01T07:04:31;10.10;92.60
47226;DHT22;32965;64.142;-21.912;2022-08-01T07:06:58;10.10;92.70
47226;DHT22;32965;64.142;-21.912;2022-08-01T07:12:10;10.20;92.10
47226;DHT22;32965;64.142;-21.912;2022-08-01T07:14:42;10.30;92.40
47226;DHT22;32965;64.142;-21.912;2022-08-01T07:17:08;10.60;92.50
47226;DHT22;32965;64.142;-21.912;2022-08-01T07:19:35;10.70;91.90
47226;DHT22;32965;64.142;-21.912;2022-08-01T07:22:01;10.80;91.60
47226;DHT22;32965;64.142;-21.912;2022-08-01T07:24:46;10.70;91.20
47226;DHT22;32965;64.142;-21.912;2022-08-01T07:27:12;10.60;91.40
47226;DHT22;32965;64.142;-21.912;2022-08-01T07:29:44;10.50;92.10
47226;DHT22;32965;64.142;-21.912;2022-08-01T07:32:11;10.50;91.60
47226;DHT22;32965;64.142;-21.912;2022-08-01T07:34:38;10.40;91.30
47226;DHT22;32965;64.142;-21.912;2022-08-01T07:37:06;10.20;92.00
47226;DHT22;32965;64.142;-21.912;2022-08-01T07:39:31;10.30;92.20
47226;DHT22;32965;64.142;-21.912;2022-08-01T07:42:03;10.30;92.20
47226;DHT22;32965;64.142;-21.912;2022-08-01T07:44:29;10.20;92.10
47226;DHT22;32965;64.142;-21.912;2022-08-01T07:46:57;10.20;92.10
47226;DHT22;32965;64.142;-21.912;2022-08-01T07:49:22;10.20;92.40
47226;DHT22;32965;64.142;-21.912;2022-08-01T07:54:14;10.30;92.30
47226;DHT22;32965;64.142;-21.912;2022-08-01T07:59:06;10.20;91.60
47226;DHT22;32965;64.142;-21.912;2022-08-01T08:04:00;10.20;91.90
47226;DHT22;32965;64.142;-21.912;2022-08-01T08:06:27;10.30;93.00
47226;DHT22;32965;64.142;-21.912;2022-08-01T08:08:59;10.40;92.60
47226;DHT22;32965;64.142;-21.912;2022-08-01T08:11:25;10.40;92.30
47226;DHT22;32965;64.142;-21.912;2022-08-01T08:13:50;10.40;92.40
47226;DHT22;32965;64.142;-21.912;2022-08-01T08:16:17;10.40;91.90
47226;DHT22;32965;64.142;-21.912;2022-08-01T08:23:36;10.40;92.20
47226;DHT22;32965;64.142;-21.912;2022-08-01T08:26:29;10.40;92.90
47226;DHT22;32965;64.142;-21.912;2022-08-01T08:28:58;10.50;92.90
47226;DHT22;32965;64.142;-21.912;2022-08-01T08:31:24;10.70;92.60
47226;DHT22;32965;64.142;-21.912;2022-08-01T08:33:53;10.80;92.00
47226;DHT22;32965;64.142;-21.912;2022-08-01T08:41:25;11.00;92.50
47226;DHT22;32965;64.142;-21.912;2022-08-01T08:46:28;11.20;91.80
47226;DHT22;32965;64.142;-21.912;2022-08-01T08:48:56;12.00;91.10
47226;DHT22;32965;64.142;-21.912;2022-08-01T08:51:25;11.90;91.30
47226;DHT22;32965;64.142;-21.912;2022-08-01T08:54:08;12.60;90.00
47226;DHT22;32965;64.142;-21.912;2022-08-01T08:56:42;13.30;87.50
47226;DHT22;32965;64.142;-21.912;2022-08-01T08:59:12;14.30;81.00
47226;DHT22;32965;64.142;-21.912;2022-08-01T09:01:49;14.20;81.30
47226;DHT22;32965;64.142;-21.912;2022-08-01T09:04:15;14.10;79.40
47226;DHT22;32965;64.142;-21.912;2022-08-01T09:09:08;14.10;78.00
47226;DHT22;32965;64.142;-21.912;2022-08-01T09:11:56;13.50;79.50
47226;DHT22;32965;64.142;-21.912;2022-08-01T09:14:23;13.50;79.50
47226;DHT22;32965;64.142;-21.912;2022-08-01T09:17:05;13.20;80.30
47226;DHT22;32965;64.142;-21.912;2022-08-01T09:19:59;12.80;81.10
47226;DHT22;32965;64.142;-21.912;2022-08-01T09:25:11;12.40;83.20
47226;DHT22;32965;64.142;-21.912;2022-08-01T09:30:23;12.40;85.10
47226;DHT22;32965;64.142;-21.912;2022-08-01T09:35:44;12.80;85.80
47226;DHT22;32965;64.142;-21.912;2022-08-01T09:38:50;12.90;85.90
47226;DHT22;32965;64.142;-21.912;2022-08-01T09:41:16;13.00;84.40
47226;DHT22;32965;64.142;-21.912;2022-08-01T09:46:52;12.80;85.30
47226;DHT22;32965;64.142;-21.912;2022-08-01T09:49:33;12.60;85.00
47226;DHT22;32965;64.142;-21.912;2022-08-01T09:52:16;12.60;84.90
47226;DHT22;32965;64.142;-21.912;2022-08-01T09:55:00;12.50;85.10
47226;DHT22;32965;64.142;-21.912;2022-08-01T09:57:28;12.60;85.70
47226;DHT22;32965;64.142;-21.912;2022-08-01T10:00:18;12.30;86.10
47226;DHT22;32965;64.142;-21.912;2022-08-01T10:02:50;12.40;86.40
47226;DHT22;32965;64.142;-21.912;2022-08-01T10:05:18;12.10;87.60
47226;DHT22;32965;64.142;-21.912;2022-08-01T10:08:09;12.10;87.20
47226;DHT22;32965;64.142;-21.912;2022-08-01T10:13:33;11.90;88.60
47226;DHT22;32965;64.142;-21.912;2022-08-01T10:16:55;11.80;88.20
47226;DHT22;32965;64.142;-21.912;2022-08-01T10:19:45;11.80;90.90
47226;DHT22;32965;64.142;-21.912;2022-08-01T10:22:23;11.80;90.20
47226;DHT22;32965;64.142;-21.912;2022-08-01T10:24:52;11.70;91.20
47226;DHT22;32965;64.142;-21.912;2022-08-01T10:27:20;11.70;91.10
47226;DHT22;32965;64.142;-21.912;2022-08-01T10:30:20;11.60;91.50
47226;DHT22;32965;64.142;-21.912;2022-08-01T10:35:26;11.60;91.40
47226;DHT22;32965;64.142;-21.912;2022-08-01T10:37:55;11.50;91.50
47226;DHT22;32965;64.142;-21.912;2022-08-01T10:42:56;11.70;91.20
47226;DHT22;32965;64.142;-21.912;2022-08-01T10:45:23;11.70;91.40
47226;DHT22;32965;64.142;-21.912;2022-08-01T10:50:48;11.60;91.10
47226;DHT22;32965;64.142;-21.912;2022-08-01T10:56:04;11.50;91.20
47226;DHT22;32965;64.142;-21.912;2022-08-01T10:58:46;11.60;91.30
47226;DHT22;32965;64.142;-21.912;2022-08-01T11:08:56;11.40;91.60
47226;DHT22;32965;64.142;-21.912;2022-08-01T11:11:24;11.50;91.70
47226;DHT22;32965;64.142;-21.912;2022-08-01T11:14:03;11.40;91.40
47226;DHT22;32965;64.142;-21.912;2022-08-01T11:19:20;11.40;90.80
47226;DHT22;32965;64.142;-21.912;2022-08-01T11:27:45;11.60;90.70
47226;DHT22;32965;64.142;-21.912;2022-08-01T11:30:21;11.80;90.30
47226;DHT22;32965;64.142;-21.912;2022-08-01T11:33:14;11.90;90.40
47226;DHT22;32965;64.142;-21.912;2022-08-01T11:41:24;11.70;88.80
47226;DHT22;32965;64.142;-21.912;2022-08-01T11:50:36;11.60;89.70
47226;DHT22;32965;64.142;-21.912;2022-08-01T11:53:18;11.60;90.20
47226;DHT22;32965;64.142;-21.912;2022-08-01T11:56:11;11.70;91.00
47226;DHT22;32965;64.142;-21.912;2022-08-01T11:58:39;11.90;89.30
47226;DHT22;32965;64.142;-21.912;2022-08-01T12:01:12;12.00;87.70
47226;DHT22;32965;64.142;-21.912;2022-08-01T12:03:44;12.00;88.10
47226;DHT22;32965;64.142;-21.912;2022-08-01T12:14:15;11.80;89.70
47226;DHT22;32965;64.142;-21.912;2022-08-01T12:17:32;11.90;90.30
47226;DHT22;32965;64.142;-21.912;2022-08-01T12:20:25;11.90;90.20
47226;DHT22;32965;64.142;-21.912;2022-08-01T12:31:54;11.90;90.30
47226;DHT22;32965;64.142;-21.912;2022-08-01T12:34:29;12.00;90.10
47226;DHT22;32965;64.142;-21.912;2022-08-01T12:36:58;12.10;90.30
47226;DHT22;32965;64.142;-21.912;2022-08-01T12:39:37;12.20;90.90
47226;DHT22;32965;64.142;-21.912;2022-08-01T12:42:08;12.10;90.50
47226;DHT22;32965;64.142;-21.912;2022-08-01T12:47:33;12.20;90.70
47226;DHT22;32965;64.142;-21.912;2022-08-01T12:52:36;12.10;90.10
47226;DHT22;32965;64.142;-21.912;2022-08-01T12:58:07;12.00;89.40
47226;DHT22;32965;64.142;-21.912;2022-08-01T13:00:34;12.00;89.30
47226;DHT22;32965;64.142;-21.912;2022-08-01T13:03:15;12.00;88.90
47226;DHT22;32965;64.142;-21.912;2022-08-01T13:06:09;12.00;89.80
47226;DHT22;32965;64.142;-21.912;2022-08-01T13:11:13;12.20;89.10
47226;DHT22;32965;64.142;-21.912;2022-08-01T13:13:54;12.20;89.00
47226;DHT22;32965;64.142;-21.912;2022-08-01T13:16:31;12.20;87.90
47226;DHT22;32965;64.142;-21.912;2022-08-01T13:18:57;12.20;88.40
47226;DHT22;32965;64.142;-21.912;2022-08-01T13:21:56;12.20;88.80
47226;DHT22;32965;64.142;-21.912;2022-08-01T13:30:14;12.20;89.10
47226;DHT22;32965;64.142;-21.912;2022-08-01T13:33:01;12.20;88.80
47226;DHT22;32965;64.142;-21.912;2022-08-01T13:35:28;12.20;89.20
47226;DHT22;32965;64.142;-21.912;2022-08-01T13:38:08;12.20;88.00
47226;DHT22;32965;64.142;-21.912;2022-08-01T13:41:01;12.10;88.20
47226;DHT22;32965;64.142;-21.912;2022-08-01T13:43:26;12.20;88.10
47226;DHT22;32965;64.142;-21.912;2022-08-01T13:46:17;12.20;88.80
47226;DHT22;32965;64.142;-21.912;2022-08-01T13:51:21;12.20;88.20
47226;DHT22;32965;64.142;-21.912;2022-08-01T13:54:05;12.30;88.70
47226;DHT22;32965;64.142;-21.912;2022-08-01T13:56:33;12.40;88.70
47226;DHT22;32965;64.142;-21.912;2022-08-01T13:59:04;12.30;89.10
47226;DHT22;32965;64.142;-21.912;2022-08-01T14:04:11;12.60;86.20
47226;DHT22;32965;64.142;-21.912;2022-08-01T14:09:12;12.20;86.70
47226;DHT22;32965;64.142;-21.912;2022-08-01T14:11:51;12.20;87.30
47226;DHT22;32965;64.142;-21.912;2022-08-01T14:17:01;12.10;87.20
47226;DHT22;32965;64.142;-21.912;2022-08-01T14:22:20;12.00;86.60
47226;DHT22;32965;64.142;-21.912;2022-08-01T14:25:05;12.10;88.30
47226;DHT22;32965;64.142;-21.912;2022-08-01T14:30:09;12.20;87.90
47226;DHT22;32965;64.142;-21.912;2022-08-01T14:33:01;12.20;87.80
47226;DHT22;32965;64.142;-21.912;2022-08-01T14:35:29;12.20;86.00
47226;DHT22;32965;64.142;-21.912;2022-08-01T14:40:50;12.20;86.10
47226;DHT22;32965;64.142;-21.912;2022-08-01T14:48:29;12.30;86.30
47226;DHT22;32965;64.142;-21.912;2022-08-01T14:53:38;12.30;85.10
47226;DHT22;32965;64.142;-21.912;2022-08-01T15:11:20;12.30;88.50
47226;DHT22;32965;64.142;-21.912;2022-08-01T15:13:46;12.40;85.90
47226;DHT22;32965;64.142;-21.912;2022-08-01T15:16:33;12.30;83.70
47226;DHT22;32965;64.142;-21.912;2022-08-01T15:24:02;12.40;82.50
47226;DHT22;32965;64.142;-21.912;2022-08-01T15:26:34;12.40;81.90
47226;DHT22;32965;64.142;-21.912;2022-08-01T15:29:03;12.40;82.20
47226;DHT22;32965;64.142;-21.912;2022-08-01T15:33:57;12.40;81.90
47226;DHT22;32965;64.142;-21.912;2022-08-01T15:36:39;12.40;81.70
47226;DHT22;32965;64.142;-21.912;2022-08-01T15:39:10;12.40;82.20
47226;DHT22;32965;64.142;-21.912;2022-08-01T15:41:54;12.40;81.50
47226;DHT22;32965;64.142;-21.912;2022-08-01T15:49:30;12.60;81.30
47226;DHT22;32965;64.142;-21.912;2022-08-01T15:52:08;12.70;81.00
47226;DHT22;32965;64.142;-21.912;2022-08-01T15:54:40;12.70;81.30
47226;DHT22;32965;64.142;-21.912;2022-08-01T15:57:16;12.70;80.40
47226;DHT22;32965;64.142;-21.912;2022-08-01T16:00:14;12.60;81.90
47226;DHT22;32965;64.142;-21.912;2022-08-01T16:07:45;12.20;83.30
47226;DHT22;32965;64.142;-21.912;2022-08-01T16:10:12;11.90;87.00
47226;DHT22;32965;64.142;-21.912;2022-08-01T16:12:53;11.80;88.40
47226;DHT22;32965;64.142;-21.912;2022-08-01T16:15:43;11.70;87.80
47226;DHT22;32965;64.142;-21.912;2022-08-01T16:21:03;11.60;86.10
47226;DHT22;32965;64.142;-21.912;2022-08-01T16:23:56;11.60;86.00
47226;DHT22;32965;64.142;-21.912;2022-08-01T16:26:26;11.80;87.20
47226;DHT22;32965;64.142;-21.912;2022-08-01T16:31:40;11.80;86.60
47226;DHT22;32965;64.142;-21.912;2022-08-01T16:34:36;11.80;84.80
47226;DHT22;32965;64.142;-21.912;2022-08-01T16:42:24;11.80;85.60
47226;DHT22;32965;64.142;-21.912;2022-08-01T16:44:51;11.80;86.60
47226;DHT22;32965;64.142;-21.912;2022-08-01T16:47:18;11.90;85.70
47226;DHT22;32965;64.142;-21.912;2022-08-01T16:52:41;12.10;86.80
47226;DHT22;32965;64.142;-21.912;2022-08-01T16:55:50;12.20;86.20
47226;DHT22;32965;64.142;-21.912;2022-08-01T16:58:21;12.20;86.10
47226;DHT22;32965;64.142;-21.912;2022-08-01T17:00:48;12.20;87.50
47226;DHT22;32965;64.142;-21.912;2022-08-01T17:05:49;12.20;86.40
47226;DHT22;32965;64.142;-21.912;2022-08-01T17:10:44;12.20;85.60
47226;DHT22;32965;64.142;-21.912;2022-08-01T17:13:14;12.20;84.50
47226;DHT22;32965;64.142;-21.912;2022-08-01T17:15:44;12.10;84.70
47226;DHT22;32965;64.142;-21.912;2022-08-01T17:18:14;12.10;85.90
47226;DHT22;32965;64.142;-21.912;2022-08-01T17:20:49;12.10;86.60
47226;DHT22;32965;64.142;-21.912;2022-08-01T17:23:18;12.20;86.20
47226;DHT22;32965;64.142;-21.912;2022-08-01T17:25:54;12.30;86.50
47226;DHT22;32965;64.142;-21.912;2022-08-01T17:28:21;12.30;86.70
47226;DHT22;32965;64.142;-21.912;2022-08-01T17:30:47;12.30;86.40
47226;DHT22;32965;64.142;-21.912;2022-08-01T17:33:16;12.40;85.30
47226;DHT22;32965;64.142;-21.912;2022-08-01T17:35:42;12.40;84.50
47226;DHT22;32965;64.142;-21.912;2022-08-01T17:38:10;12.30;85.00
47226;DHT22;32965;64.142;-21.912;2022-08-01T17:40:45;12.30;86.90
47226;DHT22;32965;64.142;-21.912;2022-08-01T17:45:42;12.40;85.90
47226;DHT22;32965;64.142;-21.912;2022-08-01T17:50:52;12.50;86.20
47226;DHT22;32965;64.142;-21.912;2022-08-01T17:53:27;12.50;85.50
47226;DHT22;32965;64.142;-21.912;2022-08-01T17:58:57;12.40;85.60
47226;DHT22;32965;64.142;-21.912;2022-08-01T18:01:26;12.40;85.60
47226;DHT22;32965;64.142;-21.912;2022-08-01T18:03:54;12.50;86.60
47226;DHT22;32965;64.142;-21.912;2022-08-01T18:06:29;12.50;86.30
47226;DHT22;32965;64.142;-21.912;2022-08-01T18:09:10;12.40;87.00
47226;DHT22;32965;64.142;-21.912;2022-08-01T18:11:36;12.40;86.90
47226;DHT22;32965;64.142;-21.912;2022-08-01T18:19:38;12.30;86.10
47226;DHT22;32965;64.142;-21.912;2022-08-01T18:27:03;12.30;87.00
47226;DHT22;32965;64.142;-21.912;2022-08-01T18:29:30;12.20;86.50
47226;DHT22;32965;64.142;-21.912;2022-08-01T18:31:59;12.10;87.40
47226;DHT22;32965;64.142;-21.912;2022-08-01T18:34:33;12.00;88.00
47226;DHT22;32965;64.142;-21.912;2022-08-01T18:47:01;11.90;88.30
47226;DHT22;32965;64.142;-21.912;2022-08-01T18:54:30;11.90;86.80
47226;DHT22;32965;64.142;-21.912;2022-08-01T19:12:15;11.80;89.90
47226;DHT22;32965;64.142;-21.912;2022-08-01T19:20:11;11.80;88.50
47226;DHT22;32965;64.142;-21.912;2022-08-01T19:25:17;11.70;90.70
47226;DHT22;32965;64.142;-21.912;2022-08-01T19:27:48;11.70;88.60
47226;DHT22;32965;64.142;-21.912;2022-08-01T19:30:40;11.60;89.40
47226;DHT22;32965;64.142;-21.912;2022-08-01T19:33:13;11.70;89.90
47226;DHT22;32965;64.142;-21.912;2022-08-01T19:38:29;11.60;90.90
47226;DHT22;32965;64.142;-21.912;2022-08-01T19:41:28;11.70;90.40
47226;DHT22;32965;64.142;-21.912;2022-08-01T19:44:11;11.60;90.30
47226;DHT22;32965;64.142;-21.912;2022-08-01T19:49:40;11.50;90.50
47226;DHT22;32965;64.142;-21.912;2022-08-01T19:57:12;11.40;90.20
47226;DHT22;32965;64.142;-21.912;2022-08-01T20:02:37;11.20;91.40
47226;DHT22;32965;64.142;-21.912;2022-08-01T20:08:05;11.10;92.30
47226;DHT22;32965;64.142;-21.912;2022-08-01T20:13:19;11.00;92.30
47226;DHT22;32965;64.142;-21.912;2022-08-01T20:19:05;11.10;92.30
47226;DHT22;32965;64.142;-21.912;2022-08-01T20:21:35;11.00;92.60
47226;DHT22;32965;64.142;-21.912;2022-08-01T20:24:14;11.10;92.10
47226;DHT22;32965;64.142;-21.912;2022-08-01T20:26:50;11.00;92.30
47226;DHT22;32965;64.142;-21.912;2022-08-01T20:30:18;10.90;91.50
47226;DHT22;32965;64.142;-21.912;2022-08-01T20:32:46;10.90;92.10
47226;DHT22;32965;64.142;-21.912;2022-08-01T20:35:14;10.80;92.70
47226;DHT22;32965;64.142;-21.912;2022-08-01T20:38:27;10.70;93.40
47226;DHT22;32965;64.142;-21.912;2022-08-01T20:40:55;10.60;93.60
47226;DHT22;32965;64.142;-21.912;2022-08-01T20:43:32;10.60;93.80
47226;DHT22;32965;64.142;-21.912;2022-08-01T20:46:07;10.60;93.20
47226;DHT22;32965;64.142;-21.912;2022-08-01T20:51:08;10.70;92.10
47226;DHT22;32965;64.142;-21.912;2022-08-01T20:53:46;10.70;92.50
47226;DHT22;32965;64.142;-21.912;2022-08-01T20:59:34;10.70;91.80
47226;DHT22;32965;64.142;-21.912;2022-08-01T21:05:35;10.60;92.30